sensor_id;sensor_type;location;lat;lon;timestamp;pressure;altitude;pressure_sealevel;temperature;humidity
47556;BME280;33291;46.222;26.460;2023-07-09T00:00:32;96788.91;;;14.37;75.94
47556;BME280;33291;46.222;26.460;2023-07-09T00:02:58;96782.94;;;14.27;75.88
47556;BME280;33291;46.222;26.460;2023-07-09T00:05:23;96785.09;;;14.31;75.83
47556;BME280;33291;46.222;26.460;2023-07-09T00:07:49;96777.69;;;14.27;76.35
47556;BME280;33291;46.222;26.460;2023-07-09T00:10:20;96788.41;;;14.33;76.04
47556;BME280;33291;46.222;26.460;2023-07-09T00:12:46;96793.31;;;14.36;76.04
47556;BME280;33291;46.222;26.460;2023-07-09T00:15:13;96784.44;;;14.29;76.20
47556;BME280;33291;46.222;26.460;2023-07-09T00:17:41;96784.94;;;14.33;76.07
47556;BME280;33291;46.222;26.460;2023-07-09T00:20:14;96780.13;;;14.20;76.71
47556;BME280;33291;46.222;26.460;2023-07-09T00:22:41;96785.06;;;14.23;76.90
47556;BME280;33291;46.222;26.460;2023-07-09T00:25:11;96764.03;;;14.15;76.84
47556;BME280;33291;46.222;26.460;2023-07-09T00:27:42;96780.06;;;14.12;78.37
47556;BME280;33291;46.222;26.460;2023-07-09T00:30:20;96778.94;;;14.14;78.16
47556;BME280;33291;46.222;26.460;2023-07-09T00:32:48;96747.25;;;13.99;78.09
47556;BME280;33291;46.222;26.460;2023-07-09T00:35:13;96775.84;;;14.19;77.91
47556;BME280;33291;46.222;26.460;2023-07-09T00:37:42;96786.34;;;14.19;77.99
47556;BME280;33291;46.222;26.460;2023-07-09T00:40:21;96787.31;;;14.18;78.19
47556;BME280;33291;46.222;26.460;2023-07-09T00:42:48;96758.56;;;14.00;77.91
47556;BME280;33291;46.222;26.460;2023-07-09T00:45:26;96791.22;;;14.14;77.94
47556;BME280;33291;46.222;26.460;2023-07-09T00:48:02;96786.94;;;14.13;77.99
47556;BME280;33291;46.222;26.460;2023-07-09T00:50:52;96773.34;;;14.09;78.04
47556;BME280;33291;46.222;26.460;2023-07-09T00:53:25;96775.13;;;14.09;78.34
47556;BME280;33291;46.222;26.460;2023-07-09T00:55:58;96786.44;;;14.09;78.44
47556;BME280;33291;46.222;26.460;2023-07-09T00:58:26;96782.53;;;14.13;78.31
47556;BME280;33291;46.222;26.460;2023-07-09T01:00:56;96785.53;;;14.18;78.45
47556;BME280;33291;46.222;26.460;2023-07-09T01:03:33;96793.53;;;14.17;78.39
47556;BME280;33291;46.222;26.460;2023-07-09T01:06:00;96792.03;;;14.14;78.69
47556;BME280;33291;46.222;26.460;2023-07-09T01:08:28;96806.78;;;14.15;78.96
47556;BME280;33291;46.222;26.460;2023-07-09T01:10:56;96794.81;;;14.13;78.66
47556;BME280;33291;46.222;26.460;2023-07-09T01:13:21;96796.63;;;14.12;78.82
47556;BME280;33291;46.222;26.460;2023-07-09T01:15:47;96785.56;;;14.00;79.28
47556;BME280;33291;46.222;26.460;2023-07-09T01:18:13;96797.63;;;13.93;79.82
47556;BME280;33291;46.222;26.460;2023-07-09T01:20:40;96803.91;;;14.00;79.81
47556;BME280;33291;46.222;26.460;2023-07-09T01:23:06;96809.13;;;14.00;80.06
47556;BME280;33291;46.222;26.460;2023-07-09T01:25:33;96799.28;;;13.94;79.97
47556;BME280;33291;46.222;26.460;2023-07-09T01:27:59;96799.28;;;13.94;79.97
47556;BME280;33291;46.222;26.460;2023-07-09T01:30:46;96802.25;;;13.99;80.00
47556;BME280;33291;46.222;26.460;2023-07-09T01:33:11;96797.31;;;13.96;79.69
47556;BME280;33291;46.222;26.460;2023-07-09T01:35:39;96777.09;;;13.80;80.17
47556;BME280;33291;46.222;26.460;2023-07-09T01:38:07;96807.28;;;13.93;80.82
47556;BME280;33291;46.222;26.460;2023-07-09T01:40:33;96777.16;;;13.71;80.89
47556;BME280;33291;46.222;26.460;2023-07-09T01:43:00;96798.34;;;13.77;81.15
47556;BME280;33291;46.222;26.460;2023-07-09T01:45:27;96810.66;;;13.85;81.07
47556;BME280;33291;46.222;26.460;2023-07-09T01:47:53;96812.97;;;13.88;80.90
47556;BME280;33291;46.222;26.460;2023-07-09T01:50:20;96797.50;;;13.77;81.21
47556;BME280;33291;46.222;26.460;2023-07-09T01:52:46;96803.19;;;13.72;81.82
47556;BME280;33291;46.222;26.460;2023-07-09T01:55:15;96809.88;;;13.66;81.75
47556;BME280;33291;46.222;26.460;2023-07-09T01:57:42;96801.16;;;13.66;81.59
47556;BME280;33291;46.222;26.460;2023-07-09T02:00:11;96814.94;;;13.68;82.19
47556;BME280;33291;46.222;26.460;2023-07-09T02:02:42;96814.41;;;13.64;82.35
47556;BME280;33291;46.222;26.460;2023-07-09T02:05:08;96819.34;;;13.67;82.04
47556;BME280;33291;46.222;26.460;2023-07-09T02:07:34;96810.28;;;13.62;82.17
47556;BME280;33291;46.222;26.460;2023-07-09T02:10:00;96810.28;;;13.62;82.04
47556;BME280;33291;46.222;26.460;2023-07-09T02:12:26;96807.50;;;13.63;82.09
47556;BME280;33291;46.222;26.460;2023-07-09T02:14:51;96790.41;;;13.51;81.79
47556;BME280;33291;46.222;26.460;2023-07-09T02:17:17;96809.16;;;13.64;82.24
47556;BME280;33291;46.222;26.460;2023-07-09T02:19:43;96820.59;;;13.63;81.83
47556;BME280;33291;46.222;26.460;2023-07-09T02:22:09;96821.75;;;13.61;82.12
47556;BME280;33291;46.222;26.460;2023-07-09T02:24:35;96826.28;;;13.59;81.99
47556;BME280;33291;46.222;26.460;2023-07-09T02:27:04;96835.34;;;13.64;82.02
47556;BME280;33291;46.222;26.460;2023-07-09T02:29:30;96830.09;;;13.64;81.76
47556;BME280;33291;46.222;26.460;2023-07-09T02:31:58;96835.34;;;13.64;82.03
47556;BME280;33291;46.222;26.460;2023-07-09T02:34:25;96845.16;;;13.62;82.21
47556;BME280;33291;46.222;26.460;2023-07-09T02:36:52;96840.38;;;13.58;82.11
47556;BME280;33291;46.222;26.460;2023-07-09T02:39:19;96851.66;;;13.58;82.25
47556;BME280;33291;46.222;26.460;2023-07-09T02:41:44;96839.31;;;13.50;82.17
47556;BME280;33291;46.222;26.460;2023-07-09T02:44:10;96841.25;;;13.48;82.34
47556;BME280;33291;46.222;26.460;2023-07-09T02:46:35;96848.28;;;13.48;82.20
47556;BME280;33291;46.222;26.460;2023-07-09T02:49:03;96842.38;;;13.46;82.07
47556;BME280;33291;46.222;26.460;2023-07-09T02:51:29;96857.47;;;13.52;82.25
47556;BME280;33291;46.222;26.460;2023-07-09T02:53:56;96832.25;;;13.33;82.49
47556;BME280;33291;46.222;26.460;2023-07-09T02:56:22;96848.56;;;13.45;82.49
47556;BME280;33291;46.222;26.460;2023-07-09T02:58:47;96851.19;;;13.45;82.91
47556;BME280;33291;46.222;26.460;2023-07-09T03:01:13;96850.66;;;13.41;82.94
47556;BME280;33291;46.222;26.460;2023-07-09T03:03:39;96829.53;;;13.25;82.88
47556;BME280;33291;46.222;26.460;2023-07-09T03:06:05;96842.72;;;13.33;83.32
47556;BME280;33291;46.222;26.460;2023-07-09T03:08:31;96859.63;;;13.39;83.28
47556;BME280;33291;46.222;26.460;2023-07-09T03:10:57;96845.72;;;13.38;83.18
47556;BME280;33291;46.222;26.460;2023-07-09T03:13:22;96856.19;;;13.38;83.73
47556;BME280;33291;46.222;26.460;2023-07-09T03:15:57;96837.38;;;13.35;83.41
47556;BME280;33291;46.222;26.460;2023-07-09T03:18:23;96840.78;;;13.35;83.26
47556;BME280;33291;46.222;26.460;2023-07-09T03:20:49;96842.66;;;13.43;83.04
47556;BME280;33291;46.222;26.460;2023-07-09T03:23:14;96844.47;;;13.42;82.88
47556;BME280;33291;46.222;26.460;2023-07-09T03:25:41;96845.59;;;13.40;82.76
47556;BME280;33291;46.222;26.460;2023-07-09T03:28:06;96847.91;;;13.43;82.54
47556;BME280;33291;46.222;26.460;2023-07-09T03:30:32;96854.34;;;13.48;82.83
47556;BME280;33291;46.222;26.460;2023-07-09T03:32:58;96841.00;;;13.42;83.43
47556;BME280;33291;46.222;26.460;2023-07-09T03:35:23;96838.09;;;13.45;83.16
47556;BME280;33291;46.222;26.460;2023-07-09T03:37:49;96838.78;;;13.47;83.07
47556;BME280;33291;46.222;26.460;2023-07-09T03:40:21;96845.06;;;13.54;83.22
47556;BME280;33291;46.222;26.460;2023-07-09T03:42:47;96837.13;;;13.46;83.63
47556;BME280;33291;46.222;26.460;2023-07-09T03:45:12;96840.13;;;13.51;83.84
47556;BME280;33291;46.222;26.460;2023-07-09T03:47:38;96835.72;;;13.52;84.23
47556;BME280;33291;46.222;26.460;2023-07-09T03:50:06;96842.13;;;13.57;83.78
47556;BME280;33291;46.222;26.460;2023-07-09T03:52:32;96818.16;;;13.44;83.78
47556;BME280;33291;46.222;26.460;2023-07-09T03:54:57;96822.34;;;13.55;83.84
47556;BME280;33291;46.222;26.460;2023-07-09T03:57:25;96826.13;;;13.60;83.80
47556;BME280;33291;46.222;26.460;2023-07-09T03:59:51;96828.75;;;13.60;85.23
47556;BME280;33291;46.222;26.460;2023-07-09T04:02:16;96830.41;;;13.61;84.13
47556;BME280;33291;46.222;26.460;2023-07-09T04:04:42;96828.44;;;13.63;83.65
47556;BME280;33291;46.222;26.460;2023-07-09T04:07:07;96840.28;;;13.67;84.33
47556;BME280;33291;46.222;26.460;2023-07-09T04:09:33;96838.72;;;13.75;83.63
47556;BME280;33291;46.222;26.460;2023-07-09T04:11:58;96828.91;;;13.77;83.71
47556;BME280;33291;46.222;26.460;2023-07-09T04:14:27;96802.81;;;13.67;84.32
47556;BME280;33291;46.222;26.460;2023-07-09T04:16:52;96832.63;;;13.92;83.75
47556;BME280;33291;46.222;26.460;2023-07-09T04:19:18;96827.13;;;13.95;83.73
47556;BME280;33291;46.222;26.460;2023-07-09T04:21:44;96825.66;;;14.01;83.38
47556;BME280;33291;46.222;26.460;2023-07-09T04:24:09;96816.69;;;14.03;82.46
47556;BME280;33291;46.222;26.460;2023-07-09T04:26:35;96821.31;;;14.10;82.17
47556;BME280;33291;46.222;26.460;2023-07-09T04:29:01;96812.50;;;14.11;82.33
47556;BME280;33291;46.222;26.460;2023-07-09T04:31:26;96824.88;;;14.27;82.56
47556;BME280;33291;46.222;26.460;2023-07-09T04:33:51;96816.03;;;14.28;82.24
47556;BME280;33291;46.222;26.460;2023-07-09T04:36:18;96824.63;;;14.38;81.79
47556;BME280;33291;46.222;26.460;2023-07-09T04:38:43;96801.03;;;14.38;81.62
47556;BME280;33291;46.222;26.460;2023-07-09T04:41:09;96827.63;;;14.51;82.22
47556;BME280;33291;46.222;26.460;2023-07-09T04:43:34;96816.31;;;14.51;81.93
47556;BME280;33291;46.222;26.460;2023-07-09T04:46:00;96825.06;;;14.60;80.58
47556;BME280;33291;46.222;26.460;2023-07-09T04:48:25;96799.63;;;14.52;80.63
47556;BME280;33291;46.222;26.460;2023-07-09T04:50:51;96830.25;;;14.78;81.15
47556;BME280;33291;46.222;26.460;2023-07-09T04:53:16;96811.22;;;14.75;80.79
47556;BME280;33291;46.222;26.460;2023-07-09T04:55:42;96816.69;;;14.90;80.66
47556;BME280;33291;46.222;26.460;2023-07-09T04:58:08;96820.34;;;15.06;80.55
47556;BME280;33291;46.222;26.460;2023-07-09T05:00:33;96805.13;;;15.09;81.14
47556;BME280;33291;46.222;26.460;2023-07-09T05:02:59;96819.06;;;15.18;81.08
47556;BME280;33291;46.222;26.460;2023-07-09T05:05:24;96815.69;;;15.26;82.23
47556;BME280;33291;46.222;26.460;2023-07-09T05:07:50;96810.13;;;15.29;81.33
47556;BME280;33291;46.222;26.460;2023-07-09T05:10:16;96809.13;;;15.38;80.68
47556;BME280;33291;46.222;26.460;2023-07-09T05:12:53;96805.72;;;15.54;79.93
47556;BME280;33291;46.222;26.460;2023-07-09T05:15:20;96809.50;;;15.68;78.98
47556;BME280;33291;46.222;26.460;2023-07-09T05:17:46;96814.31;;;15.81;78.75
47556;BME280;33291;46.222;26.460;2023-07-09T05:20:13;96816.09;;;15.89;79.40
47556;BME280;33291;46.222;26.460;2023-07-09T05:22:38;96807.22;;;15.98;79.15
47556;BME280;33291;46.222;26.460;2023-07-09T05:25:04;96812.81;;;16.11;77.26
47556;BME280;33291;46.222;26.460;2023-07-09T05:27:29;96802.09;;;16.21;76.96
47556;BME280;33291;46.222;26.460;2023-07-09T05:29:55;96801.09;;;16.30;76.04
47556;BME280;33291;46.222;26.460;2023-07-09T05:32:20;96800.59;;;16.43;76.17
47556;BME280;33291;46.222;26.460;2023-07-09T05:34:46;96800.53;;;16.68;76.58
47556;BME280;33291;46.222;26.460;2023-07-09T05:37:11;96801.78;;;16.80;75.69
47556;BME280;33291;46.222;26.460;2023-07-09T05:39:37;96804.72;;;16.94;74.59
47556;BME280;33291;46.222;26.460;2023-07-09T05:42:02;96791.53;;;17.02;73.38
47556;BME280;33291;46.222;26.460;2023-07-09T05:44:28;96796.25;;;17.15;72.75
47556;BME280;33291;46.222;26.460;2023-07-09T05:46:53;96795.03;;;17.26;72.78
47556;BME280;33291;46.222;26.460;2023-07-09T05:49:19;96794.28;;;17.40;71.71
47556;BME280;33291;46.222;26.460;2023-07-09T05:51:44;96772.81;;;17.51;67.87
47556;BME280;33291;46.222;26.460;2023-07-09T05:54:10;96786.44;;;17.78;64.83
47556;BME280;33291;46.222;26.460;2023-07-09T05:56:36;96790.78;;;17.94;65.94
47556;BME280;33291;46.222;26.460;2023-07-09T05:59:02;96787.91;;;18.04;65.36
47556;BME280;33291;46.222;26.460;2023-07-09T06:01:27;96760.38;;;18.21;56.56
47556;BME280;33291;46.222;26.460;2023-07-09T06:03:52;96786.03;;;18.57;55.62
47556;BME280;33291;46.222;26.460;2023-07-09T06:06:20;96774.81;;;18.70;55.62
47556;BME280;33291;46.222;26.460;2023-07-09T06:08:45;96790.59;;;18.93;54.52
47556;BME280;33291;46.222;26.460;2023-07-09T06:11:12;96791.81;;;19.12;53.76
47556;BME280;33291;46.222;26.460;2023-07-09T06:13:38;96788.91;;;19.22;52.24
47556;BME280;33291;46.222;26.460;2023-07-09T06:16:04;96789.91;;;19.43;52.59
47556;BME280;33291;46.222;26.460;2023-07-09T06:18:30;96783.97;;;19.56;51.19
47556;BME280;33291;46.222;26.460;2023-07-09T06:21:00;96791.03;;;19.77;49.94
47556;BME280;33291;46.222;26.460;2023-07-09T06:23:27;96788.50;;;19.83;50.89
47556;BME280;33291;46.222;26.460;2023-07-09T06:25:53;96777.59;;;19.93;49.89
47556;BME280;33291;46.222;26.460;2023-07-09T06:28:22;96786.00;;;20.03;50.53
47556;BME280;33291;46.222;26.460;2023-07-09T06:30:49;96778.38;;;20.15;49.27
47556;BME280;33291;46.222;26.460;2023-07-09T06:33:16;96779.84;;;20.18;50.12
47556;BME280;33291;46.222;26.460;2023-07-09T06:35:54;96777.59;;;20.21;49.40
47556;BME280;33291;46.222;26.460;2023-07-09T06:38:20;96777.66;;;20.28;50.06
47556;BME280;33291;46.222;26.460;2023-07-09T06:40:46;96771.81;;;20.39;49.68
47556;BME280;33291;46.222;26.460;2023-07-09T06:43:12;96769.78;;;20.41;48.05
47556;BME280;33291;46.222;26.460;2023-07-09T06:45:38;96770.47;;;20.50;48.50
47556;BME280;33291;46.222;26.460;2023-07-09T06:48:03;96776.38;;;20.52;48.40
47556;BME280;33291;46.222;26.460;2023-07-09T06:50:32;96770.50;;;20.57;48.36
47556;BME280;33291;46.222;26.460;2023-07-09T06:52:58;96751.16;;;20.56;49.05
47556;BME280;33291;46.222;26.460;2023-07-09T06:55:23;96760.19;;;20.69;48.23
47556;BME280;33291;46.222;26.460;2023-07-09T06:57:49;96766.16;;;20.77;47.88
47556;BME280;33291;46.222;26.460;2023-07-09T07:00:15;96771.06;;;20.87;46.59
47556;BME280;33291;46.222;26.460;2023-07-09T07:02:40;96768.22;;;20.89;47.04
47556;BME280;33291;46.222;26.460;2023-07-09T07:05:06;96764.38;;;20.91;47.39
47556;BME280;33291;46.222;26.460;2023-07-09T07:07:31;96760.56;;;21.07;47.52
47556;BME280;33291;46.222;26.460;2023-07-09T07:09:57;96770.13;;;21.08;46.80
47556;BME280;33291;46.222;26.460;2023-07-09T07:12:27;96765.09;;;21.20;46.86
47556;BME280;33291;46.222;26.460;2023-07-09T07:14:54;96768.78;;;21.33;46.03
47556;BME280;33291;46.222;26.460;2023-07-09T07:17:20;96748.63;;;21.38;46.00
47556;BME280;33291;46.222;26.460;2023-07-09T07:19:46;96769.00;;;21.44;46.43
47556;BME280;33291;46.222;26.460;2023-07-09T07:22:12;96747.63;;;21.53;44.42
47556;BME280;33291;46.222;26.460;2023-07-09T07:24:38;96746.81;;;21.59;45.19
47556;BME280;33291;46.222;26.460;2023-07-09T07:27:04;96722.19;;;21.52;45.64
47556;BME280;33291;46.222;26.460;2023-07-09T07:29:29;96745.81;;;21.80;45.46
47556;BME280;33291;46.222;26.460;2023-07-09T07:31:55;96758.28;;;21.79;45.63
47556;BME280;33291;46.222;26.460;2023-07-09T07:34:21;96743.19;;;21.87;43.57
47556;BME280;33291;46.222;26.460;2023-07-09T07:36:49;96739.50;;;21.81;44.11
47556;BME280;33291;46.222;26.460;2023-07-09T07:39:15;96750.09;;;21.88;44.08
47556;BME280;33291;46.222;26.460;2023-07-09T07:41:40;96744.00;;;21.87;43.32
47556;BME280;33291;46.222;26.460;2023-07-09T07:44:06;96717.50;;;21.80;43.71
47556;BME280;33291;46.222;26.460;2023-07-09T07:46:32;96735.22;;;22.07;43.40
47556;BME280;33291;46.222;26.460;2023-07-09T07:48:58;96749.28;;;22.14;43.80
47556;BME280;33291;46.222;26.460;2023-07-09T07:51:23;96729.06;;;22.26;42.80
47556;BME280;33291;46.222;26.460;2023-07-09T07:53:49;96743.53;;;22.30;42.71
47556;BME280;33291;46.222;26.460;2023-07-09T07:56:15;96723.13;;;22.24;43.60
47556;BME280;33291;46.222;26.460;2023-07-09T07:58:40;96737.81;;;22.47;43.47
47556;BME280;33291;46.222;26.460;2023-07-09T08:01:06;96734.91;;;22.62;42.56
47556;BME280;33291;46.222;26.460;2023-07-09T08:03:32;96727.16;;;22.67;42.19
47556;BME280;33291;46.222;26.460;2023-07-09T08:05:57;96719.94;;;22.74;42.35
47556;BME280;33291;46.222;26.460;2023-07-09T08:08:23;96709.44;;;22.93;41.11
47556;BME280;33291;46.222;26.460;2023-07-09T08:11:00;96717.41;;;22.99;42.30
47556;BME280;33291;46.222;26.460;2023-07-09T08:13:26;96715.16;;;22.96;41.77
47556;BME280;33291;46.222;26.460;2023-07-09T08:15:51;96721.84;;;23.05;40.34
47556;BME280;33291;46.222;26.460;2023-07-09T08:18:17;96713.47;;;23.09;41.12
47556;BME280;33291;46.222;26.460;2023-07-09T08:20:44;96721.59;;;23.20;41.64
47556;BME280;33291;46.222;26.460;2023-07-09T08:23:09;96709.25;;;23.33;41.90
47556;BME280;33291;46.222;26.460;2023-07-09T08:25:35;96716.81;;;23.36;41.46
47556;BME280;33291;46.222;26.460;2023-07-09T08:28:00;96699.19;;;23.41;41.74
47556;BME280;33291;46.222;26.460;2023-07-09T08:30:26;96694.03;;;23.47;42.43
47556;BME280;33291;46.222;26.460;2023-07-09T08:32:51;96698.44;;;23.59;40.26
47556;BME280;33291;46.222;26.460;2023-07-09T08:35:17;96707.16;;;23.67;40.98
47556;BME280;33291;46.222;26.460;2023-07-09T08:37:42;96713.56;;;23.84;41.66
47556;BME280;33291;46.222;26.460;2023-07-09T08:40:12;96694.78;;;23.79;41.87
47556;BME280;33291;46.222;26.460;2023-07-09T08:42:46;96725.97;;;23.97;41.49
47556;BME280;33291;46.222;26.460;2023-07-09T08:48:33;96728.84;;;23.95;39.20
47556;BME280;33291;46.222;26.460;2023-07-09T08:51:04;96729.53;;;23.84;38.63
47556;BME280;33291;46.222;26.460;2023-07-09T08:53:40;96725.78;;;23.67;38.70
47556;BME280;33291;46.222;26.460;2023-07-09T08:56:09;96739.59;;;23.50;39.59
47556;BME280;33291;46.222;26.460;2023-07-09T08:58:36;96738.19;;;23.48;39.77
47556;BME280;33291;46.222;26.460;2023-07-09T09:01:05;96733.75;;;23.41;40.32
47556;BME280;33291;46.222;26.460;2023-07-09T09:03:38;96741.22;;;23.51;40.57
47556;BME280;33291;46.222;26.460;2023-07-09T09:06:11;96731.97;;;23.60;40.42
47556;BME280;33291;46.222;26.460;2023-07-09T09:11:23;96722.78;;;23.82;39.30
47556;BME280;33291;46.222;26.460;2023-07-09T09:13:53;96736.09;;;23.88;39.55
47556;BME280;33291;46.222;26.460;2023-07-09T09:16:44;96732.16;;;23.91;38.44
47556;BME280;33291;46.222;26.460;2023-07-09T09:19:37;96721.72;;;23.89;37.80
47556;BME280;33291;46.222;26.460;2023-07-09T09:22:11;96693.81;;;23.73;37.88
47556;BME280;33291;46.222;26.460;2023-07-09T09:24:58;96730.91;;;23.93;39.15
47556;BME280;33291;46.222;26.460;2023-07-09T09:27:28;96730.03;;;24.00;39.24
47556;BME280;33291;46.222;26.460;2023-07-09T09:29:53;96716.00;;;24.11;38.46
47556;BME280;33291;46.222;26.460;2023-07-09T09:32:27;96695.69;;;23.98;37.94
47556;BME280;33291;46.222;26.460;2023-07-09T09:34:53;96711.44;;;24.18;38.27
47556;BME280;33291;46.222;26.460;2023-07-09T09:37:36;96707.31;;;24.22;38.46
47556;BME280;33291;46.222;26.460;2023-07-09T09:40:02;96705.69;;;24.21;38.19
47556;BME280;33291;46.222;26.460;2023-07-09T09:42:28;96710.56;;;24.24;38.06
47556;BME280;33291;46.222;26.460;2023-07-09T09:44:54;96700.13;;;24.23;38.74
47556;BME280;33291;46.222;26.460;2023-07-09T09:47:20;96699.59;;;24.14;38.26
47556;BME280;33291;46.222;26.460;2023-07-09T09:49:46;96698.56;;;24.15;38.27
47556;BME280;33291;46.222;26.460;2023-07-09T09:52:17;96708.94;;;24.23;38.76
47556;BME280;33291;46.222;26.460;2023-07-09T09:55:10;96703.69;;;24.35;40.38
47556;BME280;33291;46.222;26.460;2023-07-09T09:57:37;96699.25;;;24.47;39.26
47556;BME280;33291;46.222;26.460;2023-07-09T10:00:03;96696.75;;;24.53;38.05
47556;BME280;33291;46.222;26.460;2023-07-09T10:02:39;96691.78;;;24.56;38.25
47556;BME280;33291;46.222;26.460;2023-07-09T10:05:21;96686.09;;;24.71;39.49
47556;BME280;33291;46.222;26.460;2023-07-09T10:08:00;96699.69;;;24.81;38.21
47556;BME280;33291;46.222;26.460;2023-07-09T10:10:28;96702.44;;;24.93;38.87
47556;BME280;33291;46.222;26.460;2023-07-09T10:18:09;96687.69;;;25.21;37.54
47556;BME280;33291;46.222;26.460;2023-07-09T10:25:46;96686.72;;;25.46;36.97
47556;BME280;33291;46.222;26.460;2023-07-09T10:39:47;96684.19;;;25.63;36.43
47556;BME280;33291;46.222;26.460;2023-07-09T10:42:25;96691.97;;;25.64;36.52
47556;BME280;33291;46.222;26.460;2023-07-09T10:45:00;96675.63;;;25.61;36.10
47556;BME280;33291;46.222;26.460;2023-07-09T10:47:35;96677.81;;;25.64;35.85
47556;BME280;33291;46.222;26.460;2023-07-09T10:50:05;96673.44;;;25.69;34.53
47556;BME280;33291;46.222;26.460;2023-07-09T10:52:37;96649.53;;;25.51;35.24
47556;BME280;33291;46.222;26.460;2023-07-09T10:55:31;96677.69;;;25.70;36.14
47556;BME280;33291;46.222;26.460;2023-07-09T10:58:05;96677.94;;;25.81;36.16
47556;BME280;33291;46.222;26.460;2023-07-09T11:00:39;96666.00;;;25.95;36.05
47556;BME280;33291;46.222;26.460;2023-07-09T11:03:28;96664.41;;;26.06;36.34
47556;BME280;33291;46.222;26.460;2023-07-09T11:05:57;96664.66;;;26.04;35.79
47556;BME280;33291;46.222;26.460;2023-07-09T11:08:35;96658.22;;;26.17;35.15
47556;BME280;33291;46.222;26.460;2023-07-09T11:11:05;96661.03;;;26.11;34.81
47556;BME280;33291;46.222;26.460;2023-07-09T11:13:43;96658.94;;;26.13;36.07
47556;BME280;33291;46.222;26.460;2023-07-09T11:16:25;96647.44;;;26.24;36.22
47556;BME280;33291;46.222;26.460;2023-07-09T11:18:59;96646.97;;;26.27;35.46
47556;BME280;33291;46.222;26.460;2023-07-09T11:21:26;96649.41;;;26.29;34.43
47556;BME280;33291;46.222;26.460;2023-07-09T11:24:02;96667.16;;;26.23;34.97
47556;BME280;33291;46.222;26.460;2023-07-09T11:26:30;96661.03;;;26.22;33.54
47556;BME280;33291;46.222;26.460;2023-07-09T11:29:17;96661.25;;;26.21;33.83
47556;BME280;33291;46.222;26.460;2023-07-09T11:31:45;96660.19;;;26.22;34.81
47556;BME280;33291;46.222;26.460;2023-07-09T11:36:55;96651.94;;;26.23;34.74
47556;BME280;33291;46.222;26.460;2023-07-09T11:42:03;96649.78;;;26.09;35.93
47556;BME280;33291;46.222;26.460;2023-07-09T11:44:49;96664.50;;;26.23;35.75
47556;BME280;33291;46.222;26.460;2023-07-09T11:47:24;96663.22;;;26.26;34.92
47556;BME280;33291;46.222;26.460;2023-07-09T11:50:00;96653.59;;;26.24;35.29
47556;BME280;33291;46.222;26.460;2023-07-09T11:52:56;96659.63;;;26.32;36.17
47556;BME280;33291;46.222;26.460;2023-07-09T11:55:31;96665.06;;;26.25;34.74
47556;BME280;33291;46.222;26.460;2023-07-09T11:58:02;96656.72;;;26.33;35.52
47556;BME280;33291;46.222;26.460;2023-07-09T12:00:37;96651.94;;;26.35;34.83
47556;BME280;33291;46.222;26.460;2023-07-09T12:03:04;96632.06;;;26.31;35.00
47556;BME280;33291;46.222;26.460;2023-07-09T12:05:30;96652.53;;;26.37;34.69
47556;BME280;33291;46.222;26.460;2023-07-09T12:07:57;96652.16;;;26.34;35.27
47556;BME280;33291;46.222;26.460;2023-07-09T12:10:27;96664.34;;;26.41;35.53
47556;BME280;33291;46.222;26.460;2023-07-09T12:12:57;96646.81;;;26.46;34.37
47556;BME280;33291;46.222;26.460;2023-07-09T12:15:25;96648.53;;;26.52;34.63
47556;BME280;33291;46.222;26.460;2023-07-09T12:17:59;96651.28;;;26.57;34.54
47556;BME280;33291;46.222;26.460;2023-07-09T12:20:29;96655.03;;;26.56;34.23
47556;BME280;33291;46.222;26.460;2023-07-09T12:22:56;96650.97;;;26.53;34.22
47556;BME280;33291;46.222;26.460;2023-07-09T12:25:27;96654.19;;;26.55;34.18
47556;BME280;33291;46.222;26.460;2023-07-09T12:27:54;96645.38;;;26.55;34.48
47556;BME280;33291;46.222;26.460;2023-07-09T12:30:20;96638.41;;;26.54;34.01
47556;BME280;33291;46.222;26.460;2023-07-09T12:32:48;96628.09;;;26.46;34.40
47556;BME280;33291;46.222;26.460;2023-07-09T12:35:20;96641.75;;;26.61;34.82
47556;BME280;33291;46.222;26.460;2023-07-09T12:37:48;96640.03;;;26.67;34.87
47556;BME280;33291;46.222;26.460;2023-07-09T12:40:20;96628.06;;;26.69;33.76
47556;BME280;33291;46.222;26.460;2023-07-09T12:42:47;96638.28;;;26.72;33.92
47556;BME280;33291;46.222;26.460;2023-07-09T12:45:15;96643.50;;;26.67;34.06
47556;BME280;33291;46.222;26.460;2023-07-09T12:47:42;96634.78;;;26.60;34.37
47556;BME280;33291;46.222;26.460;2023-07-09T12:52:49;96638.16;;;26.55;33.88
47556;BME280;33291;46.222;26.460;2023-07-09T12:55:25;96657.09;;;26.54;33.82
47556;BME280;33291;46.222;26.460;2023-07-09T12:57:55;96649.22;;;26.59;34.17
47556;BME280;33291;46.222;26.460;2023-07-09T13:00:20;96648.72;;;26.62;33.93
47556;BME280;33291;46.222;26.460;2023-07-09T13:02:54;96631.63;;;26.63;33.66
47556;BME280;33291;46.222;26.460;2023-07-09T13:05:22;96634.69;;;26.67;33.21
47556;BME280;33291;46.222;26.460;2023-07-09T13:07:54;96628.97;;;26.63;33.76
47556;BME280;33291;46.222;26.460;2023-07-09T13:10:25;96650.09;;;26.76;34.41
47556;BME280;33291;46.222;26.460;2023-07-09T13:12:56;96651.00;;;26.82;34.01
47556;BME280;33291;46.222;26.460;2023-07-09T13:15:31;96646.22;;;26.84;33.81
47556;BME280;33291;46.222;26.460;2023-07-09T13:18:02;96648.19;;;26.89;33.78
47556;BME280;33291;46.222;26.460;2023-07-09T13:20:28;96649.31;;;26.93;32.84
47556;BME280;33291;46.222;26.460;2023-07-09T13:22:55;96650.84;;;26.89;32.68
47556;BME280;33291;46.222;26.460;2023-07-09T13:25:21;96635.78;;;26.83;34.01
47556;BME280;33291;46.222;26.460;2023-07-09T13:27:46;96654.84;;;26.86;33.24
47556;BME280;33291;46.222;26.460;2023-07-09T13:30:12;96650.22;;;26.82;33.97
47556;BME280;33291;46.222;26.460;2023-07-09T13:32:38;96642.19;;;26.82;33.63